UAE7TR OMDB-EGKK
Flight info
| Callsign | UAE7TR |
|---|---|
| Flight time | N/A |
| Altitude | 38000 |
| Route | ANVIX DCT GIDIS G783 RIGIL M628 PEKEM/N0514F280 Q332 MEDPO Y511 ITRUX/N0494F380 Y511 NAGBO/N0490F400 Y511 PMA J852 WEJ L677 CVO L617 MENKU Y661 ANTAR UN133 KPC UN137 AGAPU DCT SKL DCT TALAS DCT ENFAR DCT NEPSI DCT IDASI/N0441F200 M867 MONID/N0481F400 DCT NEMEK DCT NIPEL DCT RADIZ DCT BAVAX DCT ABTAL DCT ETASA DCT ADENU DCT SPI DCT BUB L608 DENUT L610 TEBRA |
| Aircraft | A359/H-SDE2E3GHIJ3J4J5LM1ORWXY/LB1D1 |
Departure
| Time | 2026-04-23 21:22 |
|---|---|
| Airport | Dubai International Airport (OMDB) |
Arrival
| Time | N/A |
|---|---|
| Airport | London Gatwick Airport (EGKK) |
| Time | Latitude | Longitude | Altitude | Speed | Heading |
|---|---|---|---|---|---|
| 2026-04-23 20:36 | 25.24876 | 55.36293 | 7 ft | 0 kts | 211° |
| 2026-04-23 21:03 | 25.24880 | 55.36295 | 7 ft | 2 kts | 211° |
| 2026-04-23 21:03 | 25.24893 | 55.36305 | 7 ft | 2 kts | 223° |
| 2026-04-23 21:03 | 25.24903 | 55.36317 | 7 ft | 2 kts | 236° |
| 2026-04-23 21:03 | 25.24910 | 55.36332 | 7 ft | 2 kts | 248° |
| 2026-04-23 21:04 | 25.24914 | 55.36347 | 7 ft | 2 kts | 260° |
| 2026-04-23 21:04 | 25.24916 | 55.36364 | 7 ft | 2 kts | 269° |
| 2026-04-23 21:04 | 25.24916 | 55.36380 | 7 ft | 2 kts | 268° |
| 2026-04-23 21:04 | 25.24917 | 55.36397 | 7 ft | 2 kts | 266° |
| 2026-04-23 21:05 | 25.24917 | 55.36413 | 7 ft | 2 kts | 277° |
| 2026-04-23 21:05 | 25.24914 | 55.36429 | 7 ft | 2 kts | 286° |
| 2026-04-23 21:05 | 25.24909 | 55.36445 | 7 ft | 2 kts | 294° |
| 2026-04-23 21:05 | 25.24902 | 55.36459 | 7 ft | 2 kts | 302° |
| 2026-04-23 21:06 | 25.24893 | 55.36473 | 7 ft | 2 kts | 302° |
| 2026-04-23 21:06 | 25.24886 | 55.36487 | 7 ft | 2 kts | 301° |
| 2026-04-23 21:06 | 25.24878 | 55.36502 | 7 ft | 2 kts | 301° |
| 2026-04-23 21:06 | 25.24870 | 55.36516 | 7 ft | 2 kts | 301° |
| 2026-04-23 21:07 | 25.24869 | 55.36518 | 7 ft | 0 kts | 301° |
| 2026-04-23 21:10 | 25.24870 | 55.36516 | 7 ft | 2 kts | 301° |
| 2026-04-23 21:10 | 25.24888 | 55.36482 | 7 ft | 8 kts | 301° |
| 2026-04-23 21:10 | 25.24928 | 55.36410 | 7 ft | 12 kts | 301° |
| 2026-04-23 21:11 | 25.24974 | 55.36327 | 7 ft | 13 kts | 301° |
| 2026-04-23 21:11 | 25.25023 | 55.36239 | 7 ft | 14 kts | 301° |
| 2026-04-23 21:11 | 25.25075 | 55.36146 | 7 ft | 15 kts | 301° |
| 2026-04-23 21:11 | 25.25130 | 55.36047 | 7 ft | 16 kts | 301° |
| 2026-04-23 21:12 | 25.25187 | 55.35943 | 7 ft | 16 kts | 301° |
| 2026-04-23 21:12 | 25.25248 | 55.35834 | 7 ft | 17 kts | 301° |
| 2026-04-23 21:12 | 25.25311 | 55.35720 | 7 ft | 18 kts | 301° |
| 2026-04-23 21:12 | 25.25377 | 55.35601 | 7 ft | 19 kts | 301° |
| 2026-04-23 21:13 | 25.25446 | 55.35476 | 7 ft | 19 kts | 301° |
| 2026-04-23 21:13 | 25.25517 | 55.35348 | 7 ft | 20 kts | 301° |
| 2026-04-23 21:13 | 25.25587 | 55.35222 | 7 ft | 17 kts | 301° |
| 2026-04-23 21:13 | 25.25632 | 55.35157 | 7 ft | 7 kts | 329° |
| 2026-04-23 21:14 | 25.25678 | 55.35160 | 7 ft | 7 kts | 23° |
| 2026-04-23 21:14 | 25.25724 | 55.35190 | 7 ft | 8 kts | 31° |
| 2026-04-23 21:14 | 25.25775 | 55.35224 | 7 ft | 9 kts | 31° |
| 2026-04-23 21:14 | 25.25834 | 55.35263 | 7 ft | 10 kts | 31° |
| 2026-04-23 21:15 | 25.25900 | 55.35308 | 7 ft | 12 kts | 31° |
| 2026-04-23 21:15 | 25.25966 | 55.35368 | 7 ft | 13 kts | 53° |
| 2026-04-23 21:15 | 25.25994 | 55.35468 | 7 ft | 15 kts | 88° |
| 2026-04-23 21:15 | 25.25962 | 55.35579 | 7 ft | 16 kts | 120° |
| 2026-04-23 21:16 | 25.25900 | 55.35692 | 7 ft | 18 kts | 121° |
| 2026-04-23 21:16 | 25.25831 | 55.35816 | 7 ft | 20 kts | 121° |
| 2026-04-23 21:16 | 25.25756 | 55.35952 | 8 ft | 21 kts | 121° |
| 2026-04-23 21:16 | 25.25677 | 55.36093 | 8 ft | 22 kts | 121° |
| 2026-04-23 21:17 | 25.25597 | 55.36238 | 9 ft | 23 kts | 121° |
| 2026-04-23 21:17 | 25.25514 | 55.36387 | 10 ft | 23 kts | 121° |
| 2026-04-23 21:17 | 25.25430 | 55.36539 | 11 ft | 24 kts | 121° |
| 2026-04-23 21:17 | 25.25344 | 55.36695 | 11 ft | 24 kts | 121° |
| 2026-04-23 21:18 | 25.25257 | 55.36851 | 13 ft | 24 kts | 121° |
| 2026-04-23 21:18 | 25.25169 | 55.37009 | 14 ft | 24 kts | 121° |
| 2026-04-23 21:18 | 25.25084 | 55.37164 | 16 ft | 24 kts | 121° |
| 2026-04-23 21:18 | 25.24998 | 55.37318 | 18 ft | 23 kts | 121° |
| 2026-04-23 21:19 | 25.24913 | 55.37471 | 19 ft | 23 kts | 121° |
| 2026-04-23 21:19 | 25.24830 | 55.37622 | 21 ft | 23 kts | 121° |
| 2026-04-23 21:19 | 25.24746 | 55.37773 | 22 ft | 23 kts | 121° |
| 2026-04-23 21:19 | 25.24686 | 55.37882 | 23 ft | 13 kts | 121° |
| 2026-04-23 21:20 | 25.24673 | 55.37941 | 24 ft | 8 kts | 69° |
| 2026-04-23 21:20 | 25.24712 | 55.37985 | 23 ft | 9 kts | 30° |
| 2026-04-23 21:20 | 25.24770 | 55.38017 | 23 ft | 9 kts | 16° |
| 2026-04-23 21:20 | 25.24822 | 55.38002 | 23 ft | 8 kts | 314° |
| 2026-04-23 21:21 | 25.24848 | 55.37955 | 23 ft | 9 kts | 300° |
| 2026-04-23 21:21 | 25.24978 | 55.37721 | 22 ft | 70 kts | 301° |
| 2026-04-23 21:21 | 25.25351 | 55.37047 | 17 ft | 134 kts | 301° |
| 2026-04-23 21:21 | 25.25947 | 55.35971 | 10 ft | 191 kts | 302° |
| 2026-04-23 21:22 | 25.26681 | 55.34660 | 493 ft | 207 kts | 302° |
| 2026-04-23 21:22 | 25.27419 | 55.33310 | 1280 ft | 211 kts | 303° |
| 2026-04-23 21:22 | 25.28189 | 55.31907 | 1980 ft | 220 kts | 304° |
| 2026-04-23 21:22 | 25.28977 | 55.30462 | 2733 ft | 227 kts | 299° |
| 2026-04-23 21:23 | 25.29290 | 55.28746 | 3412 ft | 241 kts | 262° |
| 2026-04-23 21:23 | 25.28714 | 55.26979 | 3842 ft | 252 kts | 244° |
| 2026-04-23 21:23 | 25.27895 | 55.25216 | 4253 ft | 263 kts | 243° |
| 2026-04-23 21:23 | 25.27050 | 55.23387 | 4690 ft | 272 kts | 244° |
| 2026-04-23 21:24 | 25.26241 | 55.21562 | 5544 ft | 262 kts | 244° |
| 2026-04-23 21:24 | 25.25481 | 55.19806 | 6224 ft | 247 kts | 244° |
| 2026-04-23 21:24 | 25.24710 | 55.18142 | 6696 ft | 248 kts | 233° |
| 2026-04-23 21:24 | 25.23393 | 55.16952 | 6927 ft | 250 kts | 203° |
| 2026-04-23 21:25 | 25.21677 | 55.16630 | 6930 ft | 251 kts | 178° |
| 2026-04-23 21:25 | 25.19916 | 55.16833 | 6952 ft | 262 kts | 168° |
| 2026-04-23 21:25 | 25.18262 | 55.17783 | 6952 ft | 278 kts | 137° |
| 2026-04-23 21:25 | 25.17164 | 55.19582 | 7325 ft | 290 kts | 118° |
| 2026-04-23 21:26 | 25.16282 | 55.21568 | 7954 ft | 292 kts | 120° |
| 2026-04-23 21:26 | 25.15356 | 55.23558 | 8561 ft | 294 kts | 120° |
| 2026-04-23 21:26 | 25.14405 | 55.25555 | 9172 ft | 297 kts | 121° |
| 2026-04-23 21:26 | 25.13441 | 55.27565 | 9767 ft | 299 kts | 121° |
| 2026-04-23 21:27 | 25.12454 | 55.29608 | 10344 ft | 303 kts | 121° |
| 2026-04-23 21:27 | 25.11463 | 55.31661 | 10899 ft | 307 kts | 121° |
| 2026-04-23 21:27 | 25.10492 | 55.33757 | 11453 ft | 311 kts | 117° |
| 2026-04-23 21:27 | 25.09590 | 55.35924 | 12004 ft | 315 kts | 117° |
| 2026-04-23 21:28 | 25.08686 | 55.38126 | 12551 ft | 319 kts | 116° |
| 2026-04-23 21:28 | 25.07773 | 55.40353 | 13096 ft | 322 kts | 116° |
| 2026-04-23 21:28 | 25.06854 | 55.42614 | 13601 ft | 328 kts | 115° |
| 2026-04-23 21:28 | 25.05940 | 55.44977 | 13873 ft | 341 kts | 114° |
| 2026-04-23 21:29 | 25.04801 | 55.47299 | 14098 ft | 351 kts | 133° |
| 2026-04-23 21:29 | 25.02867 | 55.48918 | 14390 ft | 354 kts | 160° |
| 2026-04-23 21:29 | 25.00473 | 55.49510 | 14693 ft | 357 kts | 178° |
| 2026-04-23 21:29 | 24.97955 | 55.49671 | 14942 ft | 369 kts | 180° |
| 2026-04-23 21:30 | 24.95351 | 55.49848 | 15158 ft | 381 kts | 178° |
| 2026-04-23 21:30 | 24.92666 | 55.50113 | 15388 ft | 394 kts | 176° |
| 2026-04-23 21:30 | 24.89885 | 55.50459 | 15600 ft | 406 kts | 175° |
| 2026-04-23 21:30 | 24.87042 | 55.50857 | 15795 ft | 417 kts | 174° |
| 2026-04-23 21:31 | 24.84128 | 55.51293 | 16033 ft | 427 kts | 174° |
| 2026-04-23 21:31 | 24.81166 | 55.51750 | 16408 ft | 432 kts | 174° |
| 2026-04-23 21:31 | 24.78184 | 55.52221 | 16853 ft | 436 kts | 174° |
| 2026-04-23 21:31 | 24.75173 | 55.52701 | 17271 ft | 440 kts | 174° |
| 2026-04-23 21:32 | 24.72134 | 55.53186 | 17679 ft | 443 kts | 174° |
| 2026-04-23 21:32 | 24.69043 | 55.53681 | 18121 ft | 446 kts | 174° |
| 2026-04-23 21:32 | 24.65961 | 55.54174 | 18551 ft | 449 kts | 174° |
| 2026-04-23 21:32 | 24.62870 | 55.54667 | 18978 ft | 451 kts | 174° |
| 2026-04-23 21:33 | 24.59757 | 55.55166 | 19410 ft | 454 kts | 174° |
| 2026-04-23 21:33 | 24.56624 | 55.55667 | 19826 ft | 456 kts | 174° |
| 2026-04-23 21:33 | 24.53479 | 55.56170 | 20221 ft | 459 kts | 174° |
| 2026-04-23 21:33 | 24.50316 | 55.56676 | 20626 ft | 462 kts | 174° |
| 2026-04-23 21:34 | 24.47110 | 55.57189 | 21035 ft | 464 kts | 174° |
| 2026-04-23 21:34 | 24.43909 | 55.57702 | 21443 ft | 466 kts | 174° |
| 2026-04-23 21:34 | 24.40687 | 55.58219 | 21821 ft | 469 kts | 174° |
| 2026-04-23 21:34 | 24.37453 | 55.58739 | 22185 ft | 472 kts | 174° |
| 2026-04-23 21:35 | 24.34195 | 55.59259 | 22558 ft | 474 kts | 174° |
| 2026-04-23 21:35 | 24.30926 | 55.59775 | 22915 ft | 476 kts | 175° |
| 2026-04-23 21:35 | 24.27621 | 55.60025 | 23244 ft | 477 kts | 182° |
| 2026-04-23 21:35 | 24.24300 | 55.59805 | 23602 ft | 476 kts | 190° |
| 2026-04-23 21:36 | 24.17845 | 55.58197 | 24266 ft | 478 kts | 198° |
| 2026-04-23 21:36 | 24.14636 | 55.57220 | 24587 ft | 480 kts | 198° |
| 2026-04-23 21:36 | 24.11419 | 55.56237 | 24884 ft | 483 kts | 198° |
| 2026-04-23 21:37 | 24.08171 | 55.55254 | 25193 ft | 485 kts | 198° |
| 2026-04-23 21:37 | 24.04918 | 55.54279 | 25519 ft | 486 kts | 198° |
| 2026-04-23 21:37 | 24.01626 | 55.53298 | 25815 ft | 489 kts | 198° |
| 2026-04-23 21:37 | 23.98340 | 55.52317 | 26075 ft | 491 kts | 198° |
| 2026-04-23 21:38 | 23.95038 | 55.51336 | 26338 ft | 493 kts | 198° |
| 2026-04-23 21:38 | 23.91728 | 55.50354 | 26594 ft | 495 kts | 198° |
| 2026-04-23 21:38 | 23.88396 | 55.49367 | 26868 ft | 497 kts | 198° |
| 2026-04-23 21:38 | 23.85055 | 55.48382 | 27109 ft | 499 kts | 198° |
| 2026-04-23 21:39 | 23.81678 | 55.47380 | 27329 ft | 501 kts | 198° |
| 2026-04-23 21:39 | 23.78314 | 55.46378 | 27569 ft | 502 kts | 198° |
| 2026-04-23 21:39 | 23.74949 | 55.45378 | 27889 ft | 502 kts | 198° |
| 2026-04-23 21:39 | 23.71593 | 55.44383 | 28281 ft | 500 kts | 198° |
| 2026-04-23 21:40 | 23.68242 | 55.43390 | 28649 ft | 499 kts | 198° |
| 2026-04-23 21:40 | 23.64904 | 55.42402 | 28984 ft | 498 kts | 198° |
| 2026-04-23 21:40 | 23.61563 | 55.41415 | 29289 ft | 498 kts | 198° |
| 2026-04-23 21:40 | 23.58207 | 55.40424 | 29602 ft | 497 kts | 198° |
| 2026-04-23 21:41 | 23.54876 | 55.39441 | 29952 ft | 496 kts | 198° |
| 2026-04-23 21:41 | 23.51556 | 55.38461 | 30255 ft | 495 kts | 198° |
| 2026-04-23 21:41 | 23.48236 | 55.37477 | 30531 ft | 495 kts | 199° |
| 2026-04-23 21:41 | 23.44922 | 55.36494 | 30824 ft | 494 kts | 199° |
| 2026-04-23 21:42 | 23.41616 | 55.35514 | 31140 ft | 493 kts | 199° |
| 2026-04-23 21:42 | 23.38310 | 55.34535 | 31415 ft | 493 kts | 199° |
| 2026-04-23 21:42 | 23.34984 | 55.33552 | 31697 ft | 492 kts | 199° |
| 2026-04-23 21:42 | 23.31685 | 55.32578 | 31959 ft | 492 kts | 199° |
| 2026-04-23 21:43 | 23.28382 | 55.31605 | 32220 ft | 491 kts | 199° |
| 2026-04-23 21:43 | 23.25089 | 55.30637 | 32486 ft | 490 kts | 199° |
| 2026-04-23 21:43 | 23.21809 | 55.29673 | 32788 ft | 489 kts | 199° |
| 2026-04-23 21:43 | 23.18533 | 55.28711 | 33062 ft | 488 kts | 200° |
| 2026-04-23 21:44 | 23.15262 | 55.27748 | 33276 ft | 488 kts | 200° |
| 2026-04-23 21:44 | 23.12044 | 55.26589 | 33439 ft | 482 kts | 208° |
| 2026-04-23 21:44 | 23.09116 | 55.24892 | 33636 ft | 474 kts | 218° |
| 2026-04-23 21:44 | 23.06535 | 55.22733 | 33839 ft | 466 kts | 227° |
| 2026-04-23 21:45 | 23.04344 | 55.20192 | 34017 ft | 459 kts | 237° |
| 2026-04-23 21:45 | 23.02583 | 55.17350 | 34205 ft | 453 kts | 245° |
| 2026-04-23 21:45 | 23.01260 | 55.14280 | 34290 ft | 450 kts | 253° |
| 2026-04-23 21:46 | 22.99723 | 55.07721 | 34408 ft | 450 kts | 261° |
| 2026-04-23 21:46 | 22.98433 | 55.01111 | 34660 ft | 450 kts | 261° |
| 2026-04-23 21:46 | 22.97786 | 54.97803 | 34854 ft | 449 kts | 261° |
| 2026-04-23 21:47 | 22.97138 | 54.94515 | 35063 ft | 447 kts | 261° |
| 2026-04-23 21:47 | 22.96490 | 54.91241 | 35262 ft | 445 kts | 261° |
| 2026-04-23 21:47 | 22.95845 | 54.87977 | 35433 ft | 444 kts | 261° |
| 2026-04-23 21:47 | 22.95196 | 54.84696 | 35598 ft | 443 kts | 261° |
| 2026-04-23 21:48 | 22.94553 | 54.81456 | 35760 ft | 442 kts | 261° |
| 2026-04-23 21:48 | 22.93908 | 54.78214 | 35933 ft | 441 kts | 262° |
| 2026-04-23 21:48 | 22.93267 | 54.74987 | 36046 ft | 441 kts | 262° |
| 2026-04-23 21:49 | 22.91977 | 54.68510 | 36184 ft | 442 kts | 261° |
| 2026-04-23 21:49 | 22.90674 | 54.61998 | 36368 ft | 441 kts | 262° |
| 2026-04-23 21:50 | 22.89366 | 54.55507 | 36531 ft | 441 kts | 261° |
| 2026-04-23 21:50 | 22.88039 | 54.49035 | 36666 ft | 441 kts | 261° |
| 2026-04-23 21:51 | 22.86726 | 54.42583 | 36812 ft | 440 kts | 262° |
| 2026-04-23 21:51 | 22.85415 | 54.36095 | 36877 ft | 441 kts | 262° |
| 2026-04-23 21:52 | 22.84109 | 54.29624 | 36982 ft | 442 kts | 261° |
| 2026-04-23 21:52 | 22.82803 | 54.23156 | 37109 ft | 441 kts | 261° |
| 2026-04-23 21:53 | 22.81486 | 54.16669 | 37218 ft | 441 kts | 261° |
| 2026-04-23 21:53 | 22.80173 | 54.10213 | 37313 ft | 441 kts | 262° |
| 2026-04-23 21:54 | 22.78857 | 54.03753 | 37363 ft | 442 kts | 261° |
| 2026-04-23 21:54 | 22.77547 | 53.97283 | 37420 ft | 442 kts | 262° |
| 2026-04-23 21:55 | 22.76286 | 53.90790 | 37503 ft | 441 kts | 262° |
| 2026-04-23 21:55 | 22.75025 | 53.84311 | 37534 ft | 441 kts | 262° |
| 2026-04-23 21:56 | 22.73762 | 53.77840 | 37574 ft | 441 kts | 262° |
| 2026-04-23 21:56 | 22.72489 | 53.71342 | 37612 ft | 441 kts | 262° |
| 2026-04-23 21:57 | 22.71214 | 53.64864 | 37639 ft | 441 kts | 262° |
| 2026-04-23 21:57 | 22.69938 | 53.58400 | 37678 ft | 441 kts | 262° |
| 2026-04-23 21:58 | 22.68661 | 53.51929 | 37697 ft | 441 kts | 262° |
| 2026-04-23 21:58 | 22.67381 | 53.45443 | 37716 ft | 442 kts | 262° |
| 2026-04-23 21:59 | 22.66099 | 53.38968 | 37705 ft | 442 kts | 262° |
| 2026-04-23 21:59 | 22.64813 | 53.32487 | 37726 ft | 442 kts | 262° |
| 2026-04-23 22:00 | 22.62877 | 53.22747 | 37791 ft | 442 kts | 262° |
| 2026-04-23 22:00 | 22.61585 | 53.16267 | 37807 ft | 443 kts | 262° |
| 2026-04-23 22:01 | 22.60284 | 53.09771 | 37808 ft | 444 kts | 262° |
| 2026-04-23 22:01 | 22.58978 | 53.03258 | 37805 ft | 443 kts | 262° |
| 2026-04-23 22:02 | 22.57673 | 52.96777 | 37798 ft | 443 kts | 262° |
| 2026-04-23 22:02 | 22.56367 | 52.90292 | 37797 ft | 443 kts | 262° |
| 2026-04-23 22:03 | 22.55058 | 52.83807 | 37797 ft | 444 kts | 262° |
| 2026-04-23 22:03 | 22.53742 | 52.77305 | 37792 ft | 443 kts | 262° |
| 2026-04-23 22:04 | 22.52429 | 52.70838 | 37799 ft | 443 kts | 262° |
| 2026-04-23 22:04 | 22.51112 | 52.64357 | 37792 ft | 443 kts | 262° |
| 2026-04-23 22:05 | 22.49789 | 52.57869 | 37794 ft | 442 kts | 262° |
| 2026-04-23 22:05 | 22.48469 | 52.51401 | 37801 ft | 442 kts | 262° |
| 2026-04-23 22:06 | 22.47146 | 52.44939 | 37798 ft | 442 kts | 262° |
| 2026-04-23 22:06 | 22.45822 | 52.38491 | 37802 ft | 441 kts | 262° |
| 2026-04-23 22:07 | 22.44490 | 52.32018 | 37791 ft | 442 kts | 262° |
| 2026-04-23 22:07 | 22.43163 | 52.25572 | 37792 ft | 442 kts | 262° |
| 2026-04-23 22:08 | 22.41961 | 52.19083 | 37787 ft | 439 kts | 265° |
| 2026-04-23 22:08 | 22.41282 | 52.12572 | 37796 ft | 437 kts | 270° |
| 2026-04-23 22:09 | 22.41136 | 52.06074 | 37791 ft | 434 kts | 274° |
| 2026-04-23 22:09 | 22.41446 | 51.99583 | 37787 ft | 432 kts | 276° |
| 2026-04-23 22:10 | 22.41829 | 51.93129 | 37790 ft | 433 kts | 276° |
| 2026-04-23 22:10 | 22.42223 | 51.86678 | 37804 ft | 432 kts | 276° |
| 2026-04-23 22:11 | 22.42612 | 51.80208 | 37794 ft | 432 kts | 276° |
| 2026-04-23 22:11 | 22.42998 | 51.73754 | 37796 ft | 432 kts | 276° |
| 2026-04-23 22:12 | 22.43382 | 51.67304 | 37799 ft | 432 kts | 276° |
| 2026-04-23 22:12 | 22.43761 | 51.60862 | 37792 ft | 431 kts | 276° |
| 2026-04-23 22:13 | 22.44138 | 51.54403 | 37807 ft | 431 kts | 276° |
| 2026-04-23 22:13 | 22.44509 | 51.47977 | 37806 ft | 430 kts | 276° |
| 2026-04-23 22:14 | 22.44878 | 51.41558 | 37809 ft | 430 kts | 276° |
| 2026-04-23 22:14 | 22.45245 | 51.35107 | 37806 ft | 430 kts | 276° |
| 2026-04-23 22:15 | 22.45605 | 51.28690 | 37812 ft | 429 kts | 276° |
| 2026-04-23 22:15 | 22.45962 | 51.22284 | 37811 ft | 429 kts | 276° |
| 2026-04-23 22:16 | 22.46315 | 51.15883 | 37815 ft | 429 kts | 276° |
| 2026-04-23 22:16 | 22.46673 | 51.09454 | 37812 ft | 428 kts | 276° |
| 2026-04-23 22:17 | 22.47037 | 51.03054 | 37816 ft | 428 kts | 275° |
| 2026-04-23 22:17 | 22.47394 | 50.96661 | 37820 ft | 428 kts | 276° |
| 2026-04-23 22:18 | 22.47746 | 50.90249 | 37823 ft | 427 kts | 276° |
| 2026-04-23 22:18 | 22.48093 | 50.83865 | 37826 ft | 427 kts | 276° |
| 2026-04-23 22:19 | 22.48436 | 50.77491 | 37827 ft | 426 kts | 276° |
| 2026-04-23 22:19 | 22.48776 | 50.71129 | 37832 ft | 425 kts | 275° |
| 2026-04-23 22:20 | 22.49113 | 50.64760 | 37834 ft | 425 kts | 276° |
| 2026-04-23 22:20 | 22.49446 | 50.58411 | 37834 ft | 425 kts | 276° |
| 2026-04-23 22:21 | 22.49776 | 50.52069 | 37832 ft | 424 kts | 276° |
| 2026-04-23 22:21 | 22.50106 | 50.45711 | 37841 ft | 424 kts | 275° |
| 2026-04-23 22:22 | 22.50429 | 50.39384 | 37837 ft | 423 kts | 276° |
| 2026-04-23 22:22 | 22.50753 | 50.33063 | 37846 ft | 423 kts | 275° |
| 2026-04-23 22:23 | 22.51066 | 50.26751 | 37844 ft | 422 kts | 275° |
| 2026-04-23 22:23 | 22.51385 | 50.20419 | 37841 ft | 422 kts | 275° |
| 2026-04-23 22:24 | 22.51695 | 50.14120 | 37841 ft | 421 kts | 275° |
| 2026-04-23 22:24 | 22.52005 | 50.07826 | 37844 ft | 421 kts | 275° |
| 2026-04-23 22:25 | 22.52314 | 50.01515 | 37846 ft | 420 kts | 275° |
| 2026-04-23 22:25 | 22.52617 | 49.95244 | 37846 ft | 420 kts | 275° |
| 2026-04-23 22:26 | 22.52916 | 49.88965 | 37856 ft | 419 kts | 275° |
| 2026-04-23 22:26 | 22.53212 | 49.82698 | 37852 ft | 419 kts | 275° |
| 2026-04-23 22:27 | 22.53562 | 49.76421 | 37851 ft | 418 kts | 277° |
| 2026-04-23 22:27 | 22.54158 | 49.70198 | 37846 ft | 418 kts | 278° |
| 2026-04-23 22:28 | 22.54756 | 49.63968 | 37854 ft | 419 kts | 278° |
| 2026-04-23 22:28 | 22.55354 | 49.57713 | 37850 ft | 418 kts | 277° |
| 2026-04-23 22:29 | 22.55941 | 49.51483 | 37853 ft | 418 kts | 278° |
| 2026-04-23 22:29 | 22.56529 | 49.45251 | 37854 ft | 419 kts | 278° |
| 2026-04-23 22:30 | 22.57115 | 49.39022 | 37851 ft | 419 kts | 278° |
| 2026-04-23 22:30 | 22.57699 | 49.32760 | 37865 ft | 419 kts | 277° |
| 2026-04-23 22:31 | 22.58275 | 49.26532 | 37854 ft | 418 kts | 277° |
| 2026-04-23 22:31 | 22.58848 | 49.20310 | 37863 ft | 418 kts | 278° |
| 2026-04-23 22:32 | 22.59424 | 49.14063 | 37862 ft | 417 kts | 277° |
| 2026-04-23 22:32 | 22.59996 | 49.07844 | 37863 ft | 417 kts | 277° |
| 2026-04-23 22:33 | 22.60566 | 49.01630 | 37852 ft | 417 kts | 277° |
| 2026-04-23 22:33 | 22.61129 | 48.95418 | 37859 ft | 417 kts | 277° |
| 2026-04-23 22:34 | 22.61696 | 48.89182 | 37857 ft | 417 kts | 277° |
| 2026-04-23 22:34 | 22.62254 | 48.82968 | 37864 ft | 417 kts | 277° |
| 2026-04-23 22:35 | 22.62813 | 48.76754 | 37859 ft | 417 kts | 277° |
| 2026-04-23 22:35 | 22.63371 | 48.70521 | 37862 ft | 416 kts | 277° |
| 2026-04-23 22:36 | 22.63922 | 48.64339 | 37878 ft | 414 kts | 277° |
| 2026-04-23 22:36 | 22.64468 | 48.58157 | 37871 ft | 414 kts | 277° |
| 2026-04-23 22:37 | 22.65016 | 48.51971 | 37877 ft | 415 kts | 277° |
| 2026-04-23 22:37 | 22.65561 | 48.45769 | 37868 ft | 415 kts | 277° |
| 2026-04-23 22:38 | 22.66102 | 48.39589 | 37875 ft | 415 kts | 277° |
| 2026-04-23 22:38 | 22.66642 | 48.33392 | 37880 ft | 415 kts | 277° |
| 2026-04-23 22:39 | 22.67176 | 48.27179 | 37876 ft | 415 kts | 276° |
| 2026-04-23 22:39 | 22.67706 | 48.20980 | 37880 ft | 415 kts | 277° |
| 2026-04-23 22:40 | 22.68234 | 48.14793 | 37878 ft | 415 kts | 277° |
| 2026-04-23 22:41 | 22.69028 | 48.05478 | 37884 ft | 415 kts | 277° |
| 2026-04-23 22:41 | 22.69557 | 47.99291 | 37880 ft | 415 kts | 277° |
| 2026-04-23 22:42 | 22.70088 | 47.93095 | 37899 ft | 415 kts | 276° |
| 2026-04-23 22:42 | 22.70605 | 47.86908 | 37887 ft | 415 kts | 277° |
| 2026-04-23 22:43 | 22.71125 | 47.80683 | 37912 ft | 415 kts | 276° |
| 2026-04-23 22:43 | 22.71639 | 47.74481 | 37900 ft | 416 kts | 276° |
| 2026-04-23 22:44 | 22.72152 | 47.68281 | 37899 ft | 415 kts | 276° |
| 2026-04-23 22:44 | 22.72662 | 47.62060 | 37905 ft | 416 kts | 276° |
| 2026-04-23 22:45 | 22.73167 | 47.55851 | 37933 ft | 415 kts | 276° |
| 2026-04-23 22:45 | 22.73670 | 47.49653 | 37928 ft | 415 kts | 276° |
| 2026-04-23 22:46 | 22.74170 | 47.43451 | 37919 ft | 415 kts | 276° |
| 2026-04-23 22:46 | 22.74670 | 47.37222 | 37949 ft | 416 kts | 276° |
| 2026-04-23 22:47 | 22.75168 | 47.31008 | 37942 ft | 416 kts | 276° |
| 2026-04-23 22:47 | 22.75655 | 47.24802 | 37946 ft | 416 kts | 276° |
| 2026-04-23 22:48 | 22.76151 | 47.18572 | 37948 ft | 415 kts | 276° |
| 2026-04-23 22:48 | 22.76648 | 47.12368 | 37953 ft | 415 kts | 276° |
| 2026-04-23 22:49 | 22.77143 | 47.06158 | 37958 ft | 416 kts | 276° |
| 2026-04-23 22:49 | 22.77637 | 46.99951 | 37956 ft | 416 kts | 276° |
| 2026-04-23 22:50 | 22.78130 | 46.93716 | 37966 ft | 416 kts | 276° |
| 2026-04-23 22:50 | 22.78614 | 46.87499 | 37950 ft | 416 kts | 276° |
| 2026-04-23 22:51 | 22.79099 | 46.81286 | 37956 ft | 416 kts | 276° |
| 2026-04-23 22:51 | 22.79581 | 46.75047 | 37956 ft | 416 kts | 276° |
| 2026-04-23 22:52 | 22.80060 | 46.68826 | 37948 ft | 416 kts | 276° |
| 2026-04-23 22:52 | 22.80536 | 46.62604 | 37977 ft | 416 kts | 276° |
| 2026-04-23 22:53 | 22.81008 | 46.56376 | 37977 ft | 416 kts | 275° |
| 2026-04-23 22:53 | 22.81481 | 46.50132 | 37958 ft | 416 kts | 276° |
| 2026-04-23 22:54 | 22.81943 | 46.43920 | 37995 ft | 416 kts | 276° |
| 2026-04-23 22:54 | 22.82412 | 46.37697 | 37988 ft | 416 kts | 276° |
| 2026-04-23 22:55 | 22.82884 | 46.31452 | 37982 ft | 416 kts | 275° |
| 2026-04-23 22:55 | 22.83342 | 46.25221 | 37982 ft | 417 kts | 276° |
| 2026-04-23 22:56 | 22.83800 | 46.18995 | 37987 ft | 416 kts | 275° |
| 2026-04-23 22:56 | 22.84255 | 46.12770 | 37989 ft | 417 kts | 276° |
| 2026-04-23 22:57 | 22.84714 | 46.06511 | 37960 ft | 416 kts | 276° |
| 2026-04-23 22:57 | 22.85165 | 46.00282 | 37959 ft | 417 kts | 275° |
| 2026-04-23 22:58 | 22.85610 | 45.94044 | 37941 ft | 417 kts | 275° |
| 2026-04-23 22:58 | 22.86060 | 45.87787 | 37948 ft | 416 kts | 275° |
| 2026-04-23 22:59 | 22.86501 | 45.81562 | 37950 ft | 416 kts | 275° |
| 2026-04-23 22:59 | 22.86938 | 45.75345 | 37952 ft | 415 kts | 275° |
| 2026-04-23 23:00 | 22.87376 | 45.69143 | 37971 ft | 415 kts | 275° |
| 2026-04-23 23:00 | 22.87812 | 45.62911 | 37966 ft | 414 kts | 274° |
| 2026-04-23 23:01 | 22.88242 | 45.56710 | 37978 ft | 414 kts | 275° |
| 2026-04-23 23:01 | 22.88669 | 45.50513 | 37967 ft | 414 kts | 275° |
| 2026-04-23 23:02 | 22.89099 | 45.44299 | 37980 ft | 414 kts | 275° |
| 2026-04-23 23:02 | 22.89523 | 45.38101 | 37986 ft | 414 kts | 274° |
| 2026-04-23 23:03 | 22.89940 | 45.31935 | 37999 ft | 414 kts | 274° |
| 2026-04-23 23:03 | 22.90353 | 45.25740 | 37982 ft | 413 kts | 274° |
| 2026-04-23 23:04 | 22.90769 | 45.19521 | 37987 ft | 414 kts | 274° |
| 2026-04-23 23:04 | 22.91181 | 45.13320 | 37999 ft | 414 kts | 274° |
| 2026-04-23 23:05 | 22.91593 | 45.07121 | 38003 ft | 414 kts | 273° |
| 2026-04-23 23:05 | 22.92005 | 45.00896 | 38001 ft | 414 kts | 273° |
| 2026-04-23 23:06 | 22.92414 | 44.94708 | 38002 ft | 414 kts | 273° |
| 2026-04-23 23:06 | 22.92810 | 44.88521 | 38010 ft | 413 kts | 273° |
| 2026-04-23 23:07 | 22.93209 | 44.82335 | 38008 ft | 413 kts | 274° |
| 2026-04-23 23:07 | 22.93612 | 44.76137 | 38005 ft | 412 kts | 274° |
| 2026-04-23 23:08 | 22.94307 | 44.70003 | 38011 ft | 412 kts | 278° |
| 2026-04-23 23:08 | 22.95454 | 44.63938 | 38013 ft | 413 kts | 282° |
| 2026-04-23 23:09 | 22.97068 | 44.57950 | 38001 ft | 413 kts | 285° |
| 2026-04-23 23:09 | 22.98863 | 44.52063 | 38016 ft | 412 kts | 285° |
| 2026-04-23 23:10 | 23.00659 | 44.46193 | 38008 ft | 412 kts | 285° |
| 2026-04-23 23:10 | 23.02460 | 44.40325 | 38005 ft | 411 kts | 285° |
| 2026-04-23 23:11 | 23.04266 | 44.34446 | 38012 ft | 410 kts | 284° |
| 2026-04-23 23:11 | 23.06056 | 44.28584 | 38028 ft | 411 kts | 285° |
| 2026-04-23 23:12 | 23.07849 | 44.22717 | 38020 ft | 412 kts | 284° |
| 2026-04-23 23:12 | 23.09655 | 44.16821 | 38023 ft | 411 kts | 284° |
| 2026-04-23 23:13 | 23.11462 | 44.10967 | 38011 ft | 411 kts | 285° |
| 2026-04-23 23:13 | 23.13272 | 44.05109 | 38025 ft | 411 kts | 284° |
| 2026-04-23 23:14 | 23.15068 | 43.99246 | 38044 ft | 411 kts | 285° |
| 2026-04-23 23:14 | 23.16864 | 43.93350 | 38023 ft | 412 kts | 283° |
| 2026-04-23 23:15 | 23.18651 | 43.87465 | 38037 ft | 412 kts | 284° |
| 2026-04-23 23:15 | 23.20428 | 43.81593 | 38038 ft | 411 kts | 284° |
| 2026-04-23 23:16 | 23.22215 | 43.75681 | 38034 ft | 413 kts | 283° |
| 2026-04-23 23:16 | 23.23996 | 43.69768 | 38017 ft | 414 kts | 283° |
| 2026-04-23 23:17 | 23.25773 | 43.63853 | 38016 ft | 413 kts | 284° |
| 2026-04-23 23:17 | 23.27560 | 43.57915 | 38021 ft | 413 kts | 283° |
| 2026-04-23 23:18 | 23.29358 | 43.51993 | 38019 ft | 415 kts | 284° |
| 2026-04-23 23:18 | 23.31153 | 43.46053 | 38039 ft | 416 kts | 283° |
| 2026-04-23 23:19 | 23.32951 | 43.40071 | 38018 ft | 417 kts | 283° |
| 2026-04-23 23:19 | 23.34738 | 43.34092 | 38015 ft | 417 kts | 283° |
| 2026-04-23 23:20 | 23.36512 | 43.28124 | 38024 ft | 416 kts | 283° |
| 2026-04-23 23:20 | 23.38288 | 43.22149 | 38021 ft | 417 kts | 283° |
| 2026-04-23 23:21 | 23.40071 | 43.16139 | 38017 ft | 418 kts | 283° |
| 2026-04-23 23:21 | 23.41864 | 43.10154 | 38013 ft | 418 kts | 283° |
| 2026-04-23 23:22 | 23.43645 | 43.04171 | 38005 ft | 418 kts | 283° |
| 2026-04-23 23:22 | 23.45430 | 42.98156 | 38007 ft | 417 kts | 283° |
| 2026-04-23 23:23 | 23.47200 | 42.92158 | 38007 ft | 418 kts | 283° |
| 2026-04-23 23:23 | 23.48967 | 42.86156 | 38001 ft | 418 kts | 283° |
| 2026-04-23 23:24 | 23.50730 | 42.80149 | 38004 ft | 418 kts | 283° |
| 2026-04-23 23:24 | 23.52501 | 42.74127 | 38004 ft | 418 kts | 283° |
| 2026-04-23 23:25 | 23.54277 | 42.68146 | 37996 ft | 416 kts | 283° |
| 2026-04-23 23:25 | 23.56044 | 42.62163 | 38001 ft | 417 kts | 283° |
| 2026-04-23 23:26 | 23.57804 | 42.56164 | 37993 ft | 415 kts | 283° |
| 2026-04-23 23:26 | 23.59554 | 42.50200 | 37999 ft | 415 kts | 283° |
| 2026-04-23 23:27 | 23.61297 | 42.44224 | 37996 ft | 416 kts | 283° |
| 2026-04-23 23:27 | 23.63044 | 42.38237 | 37989 ft | 417 kts | 282° |
| 2026-04-23 23:28 | 23.64790 | 42.32222 | 37984 ft | 416 kts | 282° |
| 2026-04-23 23:28 | 23.66531 | 42.26231 | 37989 ft | 415 kts | 283° |
| 2026-04-23 23:29 | 23.68274 | 42.20249 | 37988 ft | 416 kts | 282° |
| 2026-04-23 23:29 | 23.70010 | 42.14253 | 37986 ft | 415 kts | 282° |
| 2026-04-23 23:30 | 23.71733 | 42.08275 | 37973 ft | 415 kts | 282° |
| 2026-04-23 23:30 | 23.73453 | 42.02296 | 37980 ft | 414 kts | 282° |
| 2026-04-23 23:31 | 23.75180 | 41.96314 | 37978 ft | 415 kts | 282° |
| 2026-04-23 23:31 | 23.76919 | 41.90318 | 37983 ft | 415 kts | 283° |
| 2026-04-23 23:32 | 23.78645 | 41.84331 | 37967 ft | 415 kts | 282° |
| 2026-04-23 23:32 | 23.80369 | 41.78334 | 37974 ft | 416 kts | 281° |
| 2026-04-23 23:33 | 23.82098 | 41.72328 | 37972 ft | 416 kts | 282° |
| 2026-04-23 23:33 | 23.83815 | 41.66343 | 37975 ft | 416 kts | 281° |
| 2026-04-23 23:34 | 23.85529 | 41.60339 | 37972 ft | 416 kts | 282° |
| 2026-04-23 23:34 | 23.87244 | 41.54336 | 37972 ft | 416 kts | 282° |
| 2026-04-23 23:35 | 23.88960 | 41.48308 | 37979 ft | 415 kts | 281° |
| 2026-04-23 23:35 | 23.90659 | 41.42311 | 37962 ft | 415 kts | 282° |
| 2026-04-23 23:36 | 23.92362 | 41.36299 | 37970 ft | 416 kts | 281° |
| 2026-04-23 23:36 | 23.94077 | 41.30255 | 37960 ft | 416 kts | 282° |
| 2026-04-23 23:37 | 23.95782 | 41.24250 | 37965 ft | 415 kts | 281° |
| 2026-04-23 23:37 | 23.97478 | 41.18245 | 37953 ft | 415 kts | 281° |
| 2026-04-23 23:38 | 23.99173 | 41.12234 | 37964 ft | 416 kts | 281° |
| 2026-04-23 23:38 | 24.00870 | 41.06203 | 37963 ft | 416 kts | 282° |
| 2026-04-23 23:39 | 24.02559 | 41.00191 | 37964 ft | 416 kts | 281° |
| 2026-04-23 23:39 | 24.04251 | 40.94168 | 37965 ft | 415 kts | 281° |
| 2026-04-23 23:40 | 24.05951 | 40.88138 | 37958 ft | 416 kts | 281° |
| 2026-04-23 23:40 | 24.07645 | 40.82103 | 37964 ft | 418 kts | 281° |
| 2026-04-23 23:41 | 24.09334 | 40.76050 | 37962 ft | 418 kts | 281° |
| 2026-04-23 23:41 | 24.11034 | 40.70000 | 37959 ft | 418 kts | 282° |
| 2026-04-23 23:42 | 24.12747 | 40.63910 | 37959 ft | 419 kts | 282° |
| 2026-04-23 23:42 | 24.14441 | 40.57829 | 37960 ft | 420 kts | 282° |
| 2026-04-23 23:43 | 24.16446 | 40.51822 | 37943 ft | 424 kts | 287° |
| 2026-04-23 23:43 | 24.18946 | 40.45943 | 37951 ft | 428 kts | 290° |
| 2026-04-23 23:44 | 24.21693 | 40.40188 | 37956 ft | 429 kts | 290° |
| 2026-04-23 23:44 | 24.24449 | 40.34418 | 37935 ft | 430 kts | 290° |
| 2026-04-23 23:45 | 24.27196 | 40.28649 | 37943 ft | 429 kts | 290° |
| 2026-04-23 23:45 | 24.29957 | 40.22855 | 37943 ft | 430 kts | 290° |
| 2026-04-23 23:46 | 24.32713 | 40.17073 | 37948 ft | 430 kts | 290° |
| 2026-04-23 23:46 | 24.35475 | 40.11280 | 37928 ft | 431 kts | 290° |
| 2026-04-23 23:47 | 24.38241 | 40.05460 | 37950 ft | 431 kts | 290° |
| 2026-04-23 23:47 | 24.40997 | 39.99665 | 37933 ft | 430 kts | 290° |
| 2026-04-23 23:48 | 24.43752 | 39.93859 | 37928 ft | 431 kts | 290° |
| 2026-04-23 23:48 | 24.46500 | 39.88057 | 37930 ft | 430 kts | 290° |
| 2026-04-23 23:49 | 24.50638 | 39.79298 | 37912 ft | 432 kts | 290° |
| 2026-04-23 23:49 | 24.53387 | 39.73471 | 37917 ft | 431 kts | 290° |
| 2026-04-23 23:50 | 24.56279 | 39.67701 | 37927 ft | 435 kts | 292° |
| 2026-04-23 23:50 | 24.59303 | 39.61961 | 37939 ft | 434 kts | 292° |
| 2026-04-23 23:51 | 24.62310 | 39.56242 | 37943 ft | 434 kts | 292° |
| 2026-04-23 23:51 | 24.65307 | 39.50512 | 37953 ft | 433 kts | 292° |
| 2026-04-23 23:52 | 24.68309 | 39.44773 | 37956 ft | 434 kts | 292° |
| 2026-04-23 23:52 | 24.71299 | 39.39038 | 37922 ft | 435 kts | 292° |
| 2026-04-23 23:53 | 24.74287 | 39.33303 | 37921 ft | 435 kts | 291° |
| 2026-04-23 23:53 | 24.77273 | 39.27540 | 37885 ft | 435 kts | 291° |
| 2026-04-23 23:54 | 24.80264 | 39.21768 | 37872 ft | 433 kts | 292° |
| 2026-04-23 23:54 | 24.83247 | 39.16019 | 37858 ft | 435 kts | 292° |
| 2026-04-23 23:55 | 24.86236 | 39.10258 | 37864 ft | 435 kts | 292° |
| 2026-04-23 23:55 | 24.89224 | 39.04490 | 37856 ft | 434 kts | 291° |
| 2026-04-23 23:56 | 24.92206 | 38.98718 | 37854 ft | 436 kts | 291° |
| 2026-04-23 23:56 | 24.95191 | 38.92942 | 37866 ft | 435 kts | 291° |
| 2026-04-23 23:57 | 24.98169 | 38.87163 | 37882 ft | 435 kts | 292° |
| 2026-04-23 23:57 | 25.01163 | 38.81359 | 37904 ft | 435 kts | 292° |
| 2026-04-23 23:58 | 25.04137 | 38.75586 | 37948 ft | 435 kts | 291° |
| 2026-04-23 23:58 | 25.07104 | 38.69808 | 37931 ft | 435 kts | 292° |
| 2026-04-23 23:59 | 25.10086 | 38.64004 | 37921 ft | 435 kts | 291° |
| 2026-04-23 23:59 | 25.13084 | 38.58212 | 37896 ft | 436 kts | 292° |
| 2026-04-24 00:00 | 25.16079 | 38.52408 | 37884 ft | 437 kts | 291° |
| 2026-04-24 00:00 | 25.19057 | 38.46607 | 37866 ft | 435 kts | 291° |
| 2026-04-24 00:01 | 25.22035 | 38.40789 | 37877 ft | 436 kts | 291° |
| 2026-04-24 00:01 | 25.25003 | 38.34969 | 37865 ft | 437 kts | 291° |
| 2026-04-24 00:02 | 25.27963 | 38.29146 | 37878 ft | 436 kts | 291° |
| 2026-04-24 00:02 | 25.30924 | 38.23316 | 37874 ft | 435 kts | 291° |
| 2026-04-24 00:03 | 25.33873 | 38.17507 | 37894 ft | 435 kts | 290° |
| 2026-04-24 00:03 | 25.36836 | 38.11670 | 37888 ft | 438 kts | 290° |
| 2026-04-24 00:04 | 25.39793 | 38.05832 | 37887 ft | 438 kts | 291° |
| 2026-04-24 00:04 | 25.42760 | 37.99974 | 37889 ft | 437 kts | 291° |
| 2026-04-24 00:05 | 25.45721 | 37.94123 | 37879 ft | 439 kts | 290° |
| 2026-04-24 00:05 | 25.48685 | 37.88254 | 37878 ft | 438 kts | 290° |
| 2026-04-24 00:06 | 25.51652 | 37.82369 | 37862 ft | 436 kts | 290° |
| 2026-04-24 00:06 | 25.54598 | 37.76522 | 37857 ft | 437 kts | 290° |
| 2026-04-24 00:07 | 25.57536 | 37.70677 | 37856 ft | 436 kts | 290° |
| 2026-04-24 00:07 | 25.60479 | 37.64825 | 37854 ft | 438 kts | 290° |
| 2026-04-24 00:08 | 25.63436 | 37.58928 | 37836 ft | 437 kts | 290° |
| 2026-04-24 00:08 | 25.66380 | 37.53058 | 37832 ft | 437 kts | 290° |
| 2026-04-24 00:09 | 25.69316 | 37.47193 | 37824 ft | 436 kts | 290° |
| 2026-04-24 00:09 | 25.72259 | 37.41301 | 37810 ft | 437 kts | 290° |
| 2026-04-24 00:10 | 25.75186 | 37.35442 | 37803 ft | 435 kts | 290° |
| 2026-04-24 00:10 | 25.78105 | 37.29570 | 37796 ft | 436 kts | 290° |
| 2026-04-24 00:11 | 25.81012 | 37.23715 | 37788 ft | 434 kts | 290° |
| 2026-04-24 00:11 | 25.83923 | 37.17852 | 37785 ft | 435 kts | 289° |
| 2026-04-24 00:12 | 25.86841 | 37.11977 | 37776 ft | 436 kts | 289° |
| 2026-04-24 00:12 | 25.89749 | 37.06111 | 37775 ft | 436 kts | 289° |
| 2026-04-24 00:13 | 25.92657 | 37.00239 | 37758 ft | 433 kts | 289° |
| 2026-04-24 00:13 | 25.95545 | 36.94397 | 37759 ft | 433 kts | 289° |
| 2026-04-24 00:14 | 25.98440 | 36.88533 | 37758 ft | 435 kts | 289° |
| 2026-04-24 00:14 | 26.01329 | 36.82677 | 37754 ft | 434 kts | 289° |
| 2026-04-24 00:15 | 26.04219 | 36.76806 | 37759 ft | 433 kts | 289° |
| 2026-04-24 00:15 | 26.07108 | 36.70927 | 37762 ft | 436 kts | 289° |
| 2026-04-24 00:16 | 26.10004 | 36.65019 | 37767 ft | 438 kts | 289° |
| 2026-04-24 00:16 | 26.12930 | 36.59101 | 37764 ft | 437 kts | 289° |
| 2026-04-24 00:17 | 26.16015 | 36.53256 | 37763 ft | 445 kts | 293° |
| 2026-04-24 00:17 | 26.19610 | 36.47648 | 37760 ft | 448 kts | 298° |
| 2026-04-24 00:18 | 26.23677 | 36.42387 | 37759 ft | 452 kts | 303° |
| 2026-04-24 00:18 | 26.28015 | 36.37360 | 37762 ft | 451 kts | 304° |
| 2026-04-24 00:19 | 26.32358 | 36.32340 | 37755 ft | 452 kts | 303° |
| 2026-04-24 00:19 | 26.36680 | 36.27329 | 37762 ft | 449 kts | 303° |
| 2026-04-24 00:20 | 26.41007 | 36.22315 | 37759 ft | 449 kts | 304° |
| 2026-04-24 00:20 | 26.45332 | 36.17307 | 37761 ft | 450 kts | 303° |
| 2026-04-24 00:21 | 26.49652 | 36.12302 | 37745 ft | 448 kts | 304° |
| 2026-04-24 00:21 | 26.53980 | 36.07283 | 37753 ft | 450 kts | 304° |
| 2026-04-24 00:22 | 26.58296 | 36.02267 | 37747 ft | 448 kts | 303° |
| 2026-04-24 00:22 | 26.62603 | 35.97258 | 37744 ft | 449 kts | 304° |
| 2026-04-24 00:23 | 26.66902 | 35.92254 | 37758 ft | 448 kts | 304° |
| 2026-04-24 00:23 | 26.71217 | 35.87212 | 37747 ft | 449 kts | 304° |
| 2026-04-24 00:24 | 26.75522 | 35.82177 | 37745 ft | 449 kts | 304° |
| 2026-04-24 00:24 | 26.79826 | 35.77158 | 37753 ft | 449 kts | 304° |
| 2026-04-24 00:25 | 26.84149 | 35.72131 | 37757 ft | 448 kts | 304° |
| 2026-04-24 00:25 | 26.88445 | 35.67118 | 37746 ft | 447 kts | 304° |
| 2026-04-24 00:26 | 26.92723 | 35.62108 | 37750 ft | 447 kts | 304° |
| 2026-04-24 00:26 | 26.97006 | 35.57086 | 37750 ft | 447 kts | 304° |
| 2026-04-24 00:27 | 27.01294 | 35.52050 | 37752 ft | 445 kts | 304° |
| 2026-04-24 00:27 | 27.05556 | 35.47036 | 37745 ft | 446 kts | 304° |
| 2026-04-24 00:28 | 27.09820 | 35.42016 | 37752 ft | 446 kts | 304° |
| 2026-04-24 00:28 | 27.14119 | 35.36977 | 37750 ft | 447 kts | 304° |
| 2026-04-24 00:29 | 27.18396 | 35.31945 | 37743 ft | 446 kts | 303° |
| 2026-04-24 00:29 | 27.22637 | 35.26923 | 37753 ft | 445 kts | 304° |
| 2026-04-24 00:30 | 27.26889 | 35.21883 | 37739 ft | 446 kts | 303° |
| 2026-04-24 00:30 | 27.31155 | 35.16825 | 37748 ft | 446 kts | 303° |
| 2026-04-24 00:31 | 27.35415 | 35.11767 | 37742 ft | 447 kts | 303° |
| 2026-04-24 00:31 | 27.39674 | 35.06701 | 37738 ft | 448 kts | 303° |
| 2026-04-24 00:32 | 27.43950 | 35.01604 | 37748 ft | 447 kts | 303° |
| 2026-04-24 00:32 | 27.48213 | 34.96523 | 37740 ft | 447 kts | 303° |
| 2026-04-24 00:33 | 27.52570 | 34.91526 | 37740 ft | 451 kts | 306° |
| 2026-04-24 00:33 | 27.57152 | 34.86695 | 37738 ft | 453 kts | 307° |
| 2026-04-24 00:34 | 27.61740 | 34.81861 | 37741 ft | 449 kts | 307° |
| 2026-04-24 00:34 | 27.66292 | 34.77048 | 37736 ft | 450 kts | 307° |
| 2026-04-24 00:35 | 27.70850 | 34.72217 | 37736 ft | 451 kts | 307° |
| 2026-04-24 00:35 | 27.75418 | 34.67374 | 37749 ft | 451 kts | 306° |
| 2026-04-24 00:36 | 27.79966 | 34.62533 | 37738 ft | 450 kts | 307° |
| 2026-04-24 00:36 | 27.84501 | 34.57706 | 37750 ft | 449 kts | 307° |
| 2026-04-24 00:37 | 27.89068 | 34.52828 | 37746 ft | 451 kts | 307° |
| 2026-04-24 00:37 | 27.93601 | 34.47990 | 37758 ft | 450 kts | 307° |
| 2026-04-24 00:38 | 27.98129 | 34.43121 | 37761 ft | 449 kts | 305° |
| 2026-04-24 00:38 | 28.02282 | 34.37989 | 37773 ft | 439 kts | 301° |
| 2026-04-24 00:39 | 28.06166 | 34.32642 | 37796 ft | 441 kts | 300° |
| 2026-04-24 00:39 | 28.10026 | 34.27274 | 37818 ft | 441 kts | 300° |
| 2026-04-24 00:40 | 28.13914 | 34.21910 | 37844 ft | 441 kts | 300° |
| 2026-04-24 00:40 | 28.17811 | 34.16527 | 37890 ft | 442 kts | 300° |
| 2026-04-24 00:41 | 28.21689 | 34.11153 | 37926 ft | 441 kts | 300° |
| 2026-04-24 00:41 | 28.25555 | 34.05779 | 38007 ft | 441 kts | 300° |
| 2026-04-24 00:42 | 28.29410 | 34.00405 | 38051 ft | 440 kts | 300° |
| 2026-04-24 00:42 | 28.33273 | 33.95014 | 38039 ft | 440 kts | 300° |
| 2026-04-24 00:43 | 28.37121 | 33.89631 | 38010 ft | 441 kts | 300° |
| 2026-04-24 00:43 | 28.40972 | 33.84235 | 37982 ft | 442 kts | 301° |
| 2026-04-24 00:44 | 28.44850 | 33.78799 | 37956 ft | 443 kts | 301° |
| 2026-04-24 00:44 | 28.48714 | 33.73366 | 37935 ft | 444 kts | 301° |
| 2026-04-24 00:45 | 28.52574 | 33.67935 | 37934 ft | 443 kts | 301° |
| 2026-04-24 00:45 | 28.56429 | 33.62537 | 37929 ft | 440 kts | 301° |
| 2026-04-24 00:46 | 28.60288 | 33.57117 | 37909 ft | 441 kts | 301° |
| 2026-04-24 00:46 | 28.64139 | 33.51709 | 37921 ft | 442 kts | 301° |
| 2026-04-24 00:47 | 28.68008 | 33.46289 | 37920 ft | 443 kts | 302° |
| 2026-04-24 00:47 | 28.71887 | 33.40827 | 37905 ft | 443 kts | 301° |
| 2026-04-24 00:48 | 28.75738 | 33.35388 | 37901 ft | 443 kts | 301° |
| 2026-04-24 00:48 | 28.79592 | 33.29915 | 37897 ft | 444 kts | 301° |
| 2026-04-24 00:49 | 28.83444 | 33.24436 | 37869 ft | 444 kts | 301° |
| 2026-04-24 00:49 | 28.87309 | 33.18938 | 37870 ft | 445 kts | 301° |
| 2026-04-24 00:50 | 28.91164 | 33.13456 | 37853 ft | 445 kts | 302° |
| 2026-04-24 00:50 | 28.95026 | 33.07959 | 37856 ft | 446 kts | 302° |
| 2026-04-24 00:51 | 28.98902 | 33.02434 | 37851 ft | 446 kts | 302° |
| 2026-04-24 00:51 | 29.02757 | 32.96931 | 37852 ft | 446 kts | 302° |
| 2026-04-24 00:52 | 29.06621 | 32.91408 | 37851 ft | 447 kts | 302° |
| 2026-04-24 00:52 | 29.10487 | 32.85873 | 37850 ft | 447 kts | 302° |
| 2026-04-24 00:53 | 29.14377 | 32.80337 | 37851 ft | 447 kts | 303° |
| 2026-04-24 00:53 | 29.18251 | 32.74797 | 37859 ft | 447 kts | 303° |
| 2026-04-24 00:54 | 29.22112 | 32.69240 | 37866 ft | 449 kts | 302° |
| 2026-04-24 00:54 | 29.26006 | 32.63617 | 37863 ft | 453 kts | 303° |
| 2026-04-24 00:55 | 29.29928 | 32.57963 | 37867 ft | 456 kts | 303° |
| 2026-04-24 00:55 | 29.33859 | 32.52283 | 37881 ft | 457 kts | 303° |
| 2026-04-24 00:56 | 29.37783 | 32.46578 | 37880 ft | 458 kts | 303° |
| 2026-04-24 00:56 | 29.41718 | 32.40839 | 37900 ft | 458 kts | 303° |
| 2026-04-24 00:57 | 29.45635 | 32.35113 | 37914 ft | 458 kts | 303° |
| 2026-04-24 00:58 | 29.51499 | 32.26493 | 37934 ft | 458 kts | 303° |
| 2026-04-24 00:58 | 29.55423 | 32.20720 | 37938 ft | 459 kts | 303° |
| 2026-04-24 00:59 | 29.59337 | 32.14965 | 37928 ft | 459 kts | 303° |
| 2026-04-24 00:59 | 29.63253 | 32.09198 | 37926 ft | 460 kts | 303° |
| 2026-04-24 01:00 | 29.67179 | 32.03408 | 37920 ft | 460 kts | 303° |
| 2026-04-24 01:00 | 29.71097 | 31.97617 | 37918 ft | 461 kts | 303° |
| 2026-04-24 01:01 | 29.75013 | 31.91819 | 37914 ft | 461 kts | 303° |
| 2026-04-24 01:01 | 29.78924 | 31.86018 | 37918 ft | 460 kts | 303° |
| 2026-04-24 01:02 | 29.82733 | 31.80114 | 37913 ft | 460 kts | 302° |
| 2026-04-24 01:02 | 29.86497 | 31.74206 | 37912 ft | 459 kts | 302° |
| 2026-04-24 01:03 | 29.90267 | 31.68302 | 37926 ft | 459 kts | 302° |
| 2026-04-24 01:03 | 29.94077 | 31.62390 | 37923 ft | 460 kts | 303° |
| 2026-04-24 01:04 | 29.97887 | 31.56518 | 37984 ft | 458 kts | 303° |
| 2026-04-24 01:04 | 30.01682 | 31.50634 | 37743 ft | 459 kts | 303° |
| 2026-04-24 01:04 | 30.03576 | 31.47693 | 37864 ft | 459 kts | 303° |
| 2026-04-24 01:05 | 30.05472 | 31.44750 | 37909 ft | 459 kts | 303° |
| 2026-04-24 01:05 | 30.09535 | 31.39025 | 37916 ft | 461 kts | 308° |
| 2026-04-24 01:06 | 30.14071 | 31.33780 | 37915 ft | 464 kts | 312° |
| 2026-04-24 01:06 | 30.18783 | 31.28719 | 37919 ft | 463 kts | 312° |
| 2026-04-24 01:07 | 30.23502 | 31.23653 | 37908 ft | 463 kts | 312° |
| 2026-04-24 01:07 | 30.28199 | 31.18599 | 37903 ft | 463 kts | 312° |
| 2026-04-24 01:08 | 30.32892 | 31.13540 | 37919 ft | 462 kts | 312° |
| 2026-04-24 01:08 | 30.37574 | 31.08487 | 37911 ft | 461 kts | 312° |
| 2026-04-24 01:09 | 30.42257 | 31.03426 | 37905 ft | 461 kts | 312° |
| 2026-04-24 01:09 | 30.46919 | 30.98378 | 37916 ft | 460 kts | 312° |
| 2026-04-24 01:10 | 30.51580 | 30.93327 | 37905 ft | 460 kts | 312° |
| 2026-04-24 01:10 | 30.56251 | 30.88255 | 37908 ft | 459 kts | 312° |
| 2026-04-24 01:11 | 30.60896 | 30.83208 | 37911 ft | 459 kts | 312° |
| 2026-04-24 01:11 | 30.65539 | 30.78151 | 37911 ft | 459 kts | 312° |
| 2026-04-24 01:12 | 30.70183 | 30.73089 | 37922 ft | 460 kts | 312° |
| 2026-04-24 01:12 | 30.74830 | 30.68017 | 37917 ft | 458 kts | 312° |
| 2026-04-24 01:13 | 30.79454 | 30.62958 | 37922 ft | 458 kts | 312° |
| 2026-04-24 01:13 | 30.84074 | 30.57899 | 37920 ft | 458 kts | 312° |
| 2026-04-24 01:14 | 30.88713 | 30.52808 | 37927 ft | 458 kts | 312° |
| 2026-04-24 01:14 | 30.93322 | 30.47745 | 37923 ft | 457 kts | 312° |
| 2026-04-24 01:15 | 30.97919 | 30.42679 | 37929 ft | 456 kts | 312° |
| 2026-04-24 01:15 | 31.02521 | 30.37601 | 37927 ft | 456 kts | 312° |
| 2026-04-24 01:16 | 31.07221 | 30.32609 | 37932 ft | 458 kts | 315° |
| 2026-04-24 01:16 | 31.12299 | 30.28109 | 37929 ft | 462 kts | 320° |
| 2026-04-24 01:17 | 31.17724 | 30.24081 | 37929 ft | 464 kts | 322° |
| 2026-04-24 01:17 | 31.23216 | 30.20110 | 37931 ft | 463 kts | 323° |
| 2026-04-24 01:18 | 31.28675 | 30.16152 | 37930 ft | 463 kts | 322° |
| 2026-04-24 01:18 | 31.34136 | 30.12182 | 37929 ft | 463 kts | 323° |
| 2026-04-24 01:19 | 31.39583 | 30.08214 | 37927 ft | 463 kts | 322° |
| 2026-04-24 01:19 | 31.45055 | 30.04219 | 37930 ft | 463 kts | 322° |
| 2026-04-24 01:20 | 31.50513 | 30.00230 | 37925 ft | 464 kts | 322° |
| 2026-04-24 01:20 | 31.55965 | 29.96240 | 37930 ft | 463 kts | 322° |
| 2026-04-24 01:21 | 31.61439 | 29.92228 | 37934 ft | 464 kts | 322° |
| 2026-04-24 01:21 | 31.66890 | 29.88227 | 37927 ft | 464 kts | 322° |
| 2026-04-24 01:22 | 31.72339 | 29.84220 | 37935 ft | 464 kts | 322° |
| 2026-04-24 01:22 | 31.77789 | 29.80208 | 37931 ft | 463 kts | 322° |
| 2026-04-24 01:23 | 31.83249 | 29.76181 | 37932 ft | 463 kts | 322° |
| 2026-04-24 01:23 | 31.88687 | 29.72163 | 37932 ft | 463 kts | 322° |
| 2026-04-24 01:24 | 31.94128 | 29.68138 | 37932 ft | 463 kts | 322° |
| 2026-04-24 01:24 | 31.99573 | 29.64100 | 37937 ft | 463 kts | 322° |
| 2026-04-24 01:25 | 32.05004 | 29.60060 | 37928 ft | 464 kts | 322° |
| 2026-04-24 01:25 | 32.10440 | 29.56023 | 37932 ft | 463 kts | 322° |
| 2026-04-24 01:26 | 32.15894 | 29.52008 | 37932 ft | 464 kts | 322° |
| 2026-04-24 01:26 | 32.21352 | 29.47966 | 37932 ft | 463 kts | 322° |
| 2026-04-24 01:27 | 32.26774 | 29.43925 | 37938 ft | 462 kts | 322° |
| 2026-04-24 01:27 | 32.32196 | 29.39868 | 37928 ft | 463 kts | 322° |
| 2026-04-24 01:28 | 32.37634 | 29.35789 | 37929 ft | 463 kts | 322° |
| 2026-04-24 01:28 | 32.43051 | 29.31702 | 37932 ft | 462 kts | 321° |
| 2026-04-24 01:29 | 32.48447 | 29.27622 | 37935 ft | 462 kts | 321° |
| 2026-04-24 01:29 | 32.53845 | 29.23544 | 37930 ft | 462 kts | 321° |
| 2026-04-24 01:30 | 32.59273 | 29.19445 | 37929 ft | 462 kts | 321° |
| 2026-04-24 01:30 | 32.64675 | 29.15362 | 37932 ft | 462 kts | 321° |
| 2026-04-24 01:31 | 32.70063 | 29.11287 | 37959 ft | 460 kts | 321° |
| 2026-04-24 01:31 | 32.75455 | 29.07200 | 37936 ft | 460 kts | 321° |
| 2026-04-24 01:32 | 32.80822 | 29.03126 | 37934 ft | 459 kts | 321° |
| 2026-04-24 01:32 | 32.86183 | 28.99052 | 37935 ft | 459 kts | 321° |
| 2026-04-24 01:33 | 32.91552 | 28.94966 | 37932 ft | 459 kts | 321° |
| 2026-04-24 01:33 | 32.96935 | 28.90862 | 37931 ft | 459 kts | 321° |
| 2026-04-24 01:34 | 33.02289 | 28.86776 | 37929 ft | 459 kts | 321° |
| 2026-04-24 01:34 | 33.07645 | 28.82680 | 37921 ft | 459 kts | 321° |
| 2026-04-24 01:35 | 33.13030 | 28.78569 | 37922 ft | 459 kts | 321° |
| 2026-04-24 01:35 | 33.18395 | 28.74478 | 37928 ft | 459 kts | 321° |
| 2026-04-24 01:36 | 33.23746 | 28.70382 | 37918 ft | 459 kts | 321° |
| 2026-04-24 01:36 | 33.29104 | 28.66262 | 37925 ft | 459 kts | 321° |
| 2026-04-24 01:37 | 33.34479 | 28.62124 | 37914 ft | 459 kts | 321° |
| 2026-04-24 01:37 | 33.39831 | 28.57994 | 37924 ft | 460 kts | 321° |
| 2026-04-24 01:38 | 33.45173 | 28.53867 | 37827 ft | 458 kts | 321° |
| 2026-04-24 01:38 | 33.50548 | 28.49703 | 37904 ft | 461 kts | 321° |
| 2026-04-24 01:39 | 33.55906 | 28.45549 | 37913 ft | 460 kts | 321° |
| 2026-04-24 01:39 | 33.61261 | 28.41390 | 37925 ft | 461 kts | 321° |
| 2026-04-24 01:40 | 33.66626 | 28.37210 | 37917 ft | 461 kts | 321° |
| 2026-04-24 01:40 | 33.71989 | 28.33013 | 37914 ft | 460 kts | 320° |
| 2026-04-24 01:41 | 33.77325 | 28.28822 | 37912 ft | 460 kts | 321° |
| 2026-04-24 01:41 | 33.82801 | 28.24850 | 37912 ft | 462 kts | 324° |
| 2026-04-24 01:42 | 33.88426 | 28.21064 | 37915 ft | 463 kts | 324° |
| 2026-04-24 01:42 | 33.94035 | 28.17287 | 37910 ft | 464 kts | 324° |
| 2026-04-24 01:43 | 33.99633 | 28.13503 | 37910 ft | 463 kts | 324° |
| 2026-04-24 01:43 | 34.05232 | 28.09708 | 37909 ft | 463 kts | 324° |
| 2026-04-24 01:44 | 34.10850 | 28.05894 | 37902 ft | 463 kts | 324° |
| 2026-04-24 01:44 | 34.16457 | 28.02104 | 37905 ft | 463 kts | 324° |
| 2026-04-24 01:45 | 34.22059 | 27.98301 | 37902 ft | 464 kts | 324° |
| 2026-04-24 01:45 | 34.27680 | 27.94469 | 37903 ft | 463 kts | 324° |
| 2026-04-24 01:46 | 34.33274 | 27.90644 | 37897 ft | 463 kts | 324° |
| 2026-04-24 01:46 | 34.38862 | 27.86814 | 37903 ft | 463 kts | 324° |
| 2026-04-24 01:47 | 34.44448 | 27.82975 | 37896 ft | 463 kts | 324° |
| 2026-04-24 01:47 | 34.50049 | 27.79117 | 37900 ft | 463 kts | 324° |
| 2026-04-24 01:48 | 34.55640 | 27.75274 | 37901 ft | 463 kts | 324° |
| 2026-04-24 01:48 | 34.61232 | 27.71441 | 37895 ft | 463 kts | 324° |
| 2026-04-24 01:49 | 34.66838 | 27.67574 | 37901 ft | 463 kts | 324° |
| 2026-04-24 01:49 | 34.72419 | 27.63710 | 37899 ft | 463 kts | 324° |
| 2026-04-24 01:50 | 34.77990 | 27.59842 | 37905 ft | 463 kts | 324° |
| 2026-04-24 01:50 | 34.83566 | 27.55965 | 37905 ft | 463 kts | 324° |
| 2026-04-24 01:51 | 34.89159 | 27.52069 | 37908 ft | 463 kts | 324° |
| 2026-04-24 01:51 | 34.94732 | 27.48180 | 37908 ft | 463 kts | 324° |
| 2026-04-24 01:52 | 35.00304 | 27.44286 | 37903 ft | 463 kts | 324° |
| 2026-04-24 01:52 | 35.05894 | 27.40372 | 37906 ft | 463 kts | 324° |
| 2026-04-24 01:53 | 35.11473 | 27.36461 | 37908 ft | 464 kts | 324° |
| 2026-04-24 01:53 | 35.17051 | 27.32552 | 37907 ft | 463 kts | 323° |
| 2026-04-24 01:54 | 35.22600 | 27.28634 | 37910 ft | 462 kts | 323° |
| 2026-04-24 01:54 | 35.28172 | 27.24697 | 37918 ft | 463 kts | 323° |
| 2026-04-24 01:55 | 35.33722 | 27.20768 | 37909 ft | 462 kts | 323° |
| 2026-04-24 01:55 | 35.39275 | 27.16836 | 37916 ft | 463 kts | 323° |
| 2026-04-24 01:56 | 35.44781 | 27.12771 | 37919 ft | 461 kts | 321° |
| 2026-04-24 01:56 | 35.50171 | 27.08561 | 37921 ft | 461 kts | 321° |
| 2026-04-24 01:57 | 35.55545 | 27.04334 | 37922 ft | 461 kts | 321° |
| 2026-04-24 01:57 | 35.60912 | 27.00105 | 37915 ft | 460 kts | 321° |
| 2026-04-24 01:58 | 35.66307 | 26.95845 | 37927 ft | 461 kts | 321° |
| 2026-04-24 01:58 | 35.71685 | 26.91592 | 37919 ft | 461 kts | 321° |
| 2026-04-24 01:59 | 35.77062 | 26.87330 | 37924 ft | 461 kts | 321° |
| 2026-04-24 01:59 | 35.82450 | 26.83048 | 37922 ft | 461 kts | 321° |
| 2026-04-24 02:00 | 35.87819 | 26.78774 | 37928 ft | 461 kts | 321° |
| 2026-04-24 02:00 | 35.93194 | 26.74501 | 37928 ft | 461 kts | 321° |
| 2026-04-24 02:01 | 35.98572 | 26.70222 | 37927 ft | 461 kts | 321° |
| 2026-04-24 02:01 | 36.03963 | 26.65910 | 37918 ft | 461 kts | 321° |
| 2026-04-24 02:02 | 36.09329 | 26.61604 | 37939 ft | 461 kts | 321° |
| 2026-04-24 02:02 | 36.14713 | 26.57294 | 37921 ft | 462 kts | 321° |
| 2026-04-24 02:03 | 36.22785 | 26.50811 | 37928 ft | 462 kts | 321° |
| 2026-04-24 02:03 | 36.28157 | 26.46472 | 37926 ft | 462 kts | 321° |
| 2026-04-24 02:04 | 36.33510 | 26.42136 | 37929 ft | 462 kts | 321° |
| 2026-04-24 02:04 | 36.38893 | 26.37765 | 37925 ft | 462 kts | 321° |
| 2026-04-24 02:05 | 36.44247 | 26.33398 | 37934 ft | 462 kts | 320° |
| 2026-04-24 02:05 | 36.49584 | 26.29023 | 37920 ft | 461 kts | 320° |
| 2026-04-24 02:06 | 36.54850 | 26.24523 | 37931 ft | 459 kts | 317° |
| 2026-04-24 02:06 | 36.59738 | 26.19474 | 37925 ft | 455 kts | 311° |
| 2026-04-24 02:07 | 36.64274 | 26.14064 | 37931 ft | 453 kts | 310° |
| 2026-04-24 02:07 | 36.68775 | 26.08605 | 37917 ft | 454 kts | 310° |
| 2026-04-24 02:08 | 36.73293 | 26.03114 | 37917 ft | 454 kts | 310° |
| 2026-04-24 02:08 | 36.77791 | 25.97643 | 37939 ft | 454 kts | 310° |
| 2026-04-24 02:09 | 36.82296 | 25.92154 | 37907 ft | 454 kts | 310° |
| 2026-04-24 02:09 | 36.86794 | 25.86663 | 37937 ft | 454 kts | 310° |
| 2026-04-24 02:10 | 36.91310 | 25.81142 | 37922 ft | 455 kts | 310° |
| 2026-04-24 02:10 | 36.95810 | 25.75628 | 37940 ft | 455 kts | 310° |
| 2026-04-24 02:11 | 37.00311 | 25.70103 | 37937 ft | 455 kts | 310° |
| 2026-04-24 02:11 | 37.04826 | 25.64552 | 37938 ft | 456 kts | 310° |
| 2026-04-24 02:12 | 37.09325 | 25.59009 | 37956 ft | 456 kts | 310° |
| 2026-04-24 02:12 | 37.13832 | 25.53463 | 37937 ft | 456 kts | 311° |
| 2026-04-24 02:13 | 37.18339 | 25.47901 | 37962 ft | 457 kts | 311° |
| 2026-04-24 02:13 | 37.22857 | 25.42302 | 37970 ft | 457 kts | 311° |
| 2026-04-24 02:14 | 37.27512 | 25.36901 | 37964 ft | 459 kts | 316° |
| 2026-04-24 02:14 | 37.32596 | 25.32004 | 37962 ft | 463 kts | 319° |
| 2026-04-24 02:15 | 37.37856 | 25.27304 | 37969 ft | 464 kts | 320° |
| 2026-04-24 02:15 | 37.43099 | 25.22640 | 37983 ft | 464 kts | 320° |
| 2026-04-24 02:16 | 37.48350 | 25.17960 | 37973 ft | 464 kts | 320° |
| 2026-04-24 02:16 | 37.53601 | 25.13274 | 37981 ft | 464 kts | 320° |
| 2026-04-24 02:17 | 37.58872 | 25.08557 | 37983 ft | 465 kts | 320° |
| 2026-04-24 02:17 | 37.64128 | 25.03851 | 37986 ft | 466 kts | 320° |
| 2026-04-24 02:18 | 37.69380 | 24.99135 | 37997 ft | 466 kts | 320° |
| 2026-04-24 02:18 | 37.74661 | 24.94386 | 37990 ft | 467 kts | 320° |
| 2026-04-24 02:19 | 37.79924 | 24.89644 | 37995 ft | 467 kts | 320° |
| 2026-04-24 02:19 | 37.85186 | 24.84896 | 37990 ft | 467 kts | 320° |
| 2026-04-24 02:20 | 37.90448 | 24.80135 | 37990 ft | 467 kts | 320° |
| 2026-04-24 02:20 | 37.95729 | 24.75351 | 37989 ft | 468 kts | 320° |
| 2026-04-24 02:21 | 38.01004 | 24.70559 | 37993 ft | 468 kts | 320° |
| 2026-04-24 02:21 | 38.06272 | 24.65762 | 37990 ft | 468 kts | 321° |
| 2026-04-24 02:22 | 38.11568 | 24.60931 | 37996 ft | 469 kts | 321° |
| 2026-04-24 02:22 | 38.16858 | 24.56123 | 38003 ft | 469 kts | 321° |
| 2026-04-24 02:23 | 38.22153 | 24.51304 | 38003 ft | 470 kts | 321° |
| 2026-04-24 02:23 | 38.27432 | 24.46462 | 38010 ft | 470 kts | 321° |
| 2026-04-24 02:24 | 38.32728 | 24.41578 | 38005 ft | 470 kts | 321° |
| 2026-04-24 02:24 | 38.38007 | 24.36691 | 38010 ft | 471 kts | 321° |
| 2026-04-24 02:25 | 38.43289 | 24.31790 | 38011 ft | 471 kts | 321° |
| 2026-04-24 02:25 | 38.48589 | 24.26883 | 38010 ft | 471 kts | 321° |
| 2026-04-24 02:26 | 38.53868 | 24.21977 | 38013 ft | 472 kts | 321° |
| 2026-04-24 02:26 | 38.59151 | 24.17056 | 38011 ft | 472 kts | 321° |
| 2026-04-24 02:27 | 38.64444 | 24.12112 | 38013 ft | 473 kts | 321° |
| 2026-04-24 02:27 | 38.69756 | 24.07139 | 38015 ft | 473 kts | 321° |
| 2026-04-24 02:28 | 38.75047 | 24.02174 | 38019 ft | 474 kts | 321° |
| 2026-04-24 02:28 | 38.80344 | 23.97198 | 38019 ft | 475 kts | 321° |
| 2026-04-24 02:29 | 38.85675 | 23.92175 | 38019 ft | 476 kts | 321° |
| 2026-04-24 02:29 | 38.90990 | 23.87161 | 38022 ft | 476 kts | 321° |
| 2026-04-24 02:30 | 38.96297 | 23.82142 | 38023 ft | 477 kts | 322° |
| 2026-04-24 02:30 | 39.01619 | 23.77098 | 38023 ft | 477 kts | 322° |
| 2026-04-24 02:31 | 39.06951 | 23.72030 | 38027 ft | 477 kts | 322° |
| 2026-04-24 02:31 | 39.12281 | 23.66959 | 38031 ft | 478 kts | 322° |
| 2026-04-24 02:32 | 39.13176 | 23.66110 | 38032 ft | 478 kts | 322° |